Time;durP1;ratioP1;P1;durP2;ratioP2;P2;SDS_P1;SDS_P2;PMS_P1;PMS_P2;Temp;Humidity;BMP_temperature;BMP_pressure;BME280_temperature;BME280_humidity;BME280_pressure;Samples;Min_cycle;Max_cycle;Signal;HPM_P1;HPM_P2
2021/12/06 00:00:18;;;;;;;8.48;5.45;;;2.80;99.90;;;;;;5076695;28;20055;-79
2021/12/06 00:02:45;;;;;;;11.90;5.82;;;2.90;99.90;;;;;;5076630;28;20407;-80
2021/12/06 00:05:11;;;;;;;13.55;5.78;;;2.90;99.90;;;;;;5094909;28;20084;-79
2021/12/06 00:07:38;;;;;;;10.10;5.90;;;2.70;99.90;;;;;;5076440;28;20027;-79
2021/12/06 00:10:08;;;;;;;11.55;6.30;;;2.60;99.90;;;;;;5094570;28;20023;-79
2021/12/06 00:12:34;;;;;;;8.70;5.15;;;2.70;99.90;;;;;;5095093;28;20016;-80
2021/12/06 00:15:00;;;;;;;7.75;5.10;;;2.70;99.90;;;;;;5094469;28;20012;-79
2021/12/06 00:17:26;;;;;;;8.95;5.63;;;2.80;99.90;;;;;;5076262;28;20024;-79
2021/12/06 00:19:52;;;;;;;8.60;5.07;;;2.90;99.90;;;;;;5094453;28;20016;-79
2021/12/06 00:22:23;;;;;;;11.82;5.70;;;2.80;99.90;;;;;;5094317;28;20508;-79
2021/12/06 00:24:56;;;;;;;11.15;5.53;;;2.80;99.90;;;;;;5076989;28;20016;-79
2021/12/06 00:27:23;;;;;;;8.48;5.47;;;2.80;99.90;;;;;;5075991;28;20020;-80
2021/12/06 00:29:49;;;;;;;10.75;5.28;;;2.70;99.90;;;;;;5094176;28;20024;-79
2021/12/06 00:32:16;;;;;;;9.70;5.82;;;2.90;99.90;;;;;;5075949;28;20024;-79
2021/12/06 00:34:42;;;;;;;8.68;5.07;;;2.80;99.90;;;;;;5094360;28;20024;-79
2021/12/06 00:37:21;;;;;;;10.48;5.30;;;2.60;99.90;;;;;;5075978;28;20456;-79
2021/12/06 00:39:53;;;;;;;8.57;5.25;;;2.50;99.90;;;;;;5054114;28;20043;-79
2021/12/06 00:42:21;;;;;;;9.13;5.65;;;2.50;99.90;;;;;;5053814;28;20056;-79
2021/12/06 00:44:47;;;;;;;7.60;5.13;;;2.50;99.90;;;;;;5052703;28;20543;-79
2021/12/06 00:47:13;;;;;;;11.02;5.10;;;2.40;99.90;;;;;;5053549;28;20028;-79
2021/12/06 00:49:39;;;;;;;8.73;5.40;;;2.40;99.90;;;;;;5052319;28;20078;-79
2021/12/06 00:52:06;;;;;;;9.38;5.45;;;2.40;99.90;;;;;;5053634;28;20479;-79
2021/12/06 00:54:35;;;;;;;10.43;5.72;;;2.50;99.90;;;;;;5052292;28;20362;-79
2021/12/06 00:57:06;;;;;;;14.18;5.63;;;2.40;99.90;;;;;;5053530;28;20505;-79
2021/12/06 00:59:32;;;;;;;9.68;5.30;;;2.50;99.90;;;;;;5053464;28;20024;-79
2021/12/06 01:02:00;;;;;;;7.32;5.00;;;2.50;99.90;;;;;;5051313;28;20028;-79
2021/12/06 01:04:30;;;;;;;7.35;4.80;;;2.70;99.90;;;;;;5052080;28;20028;-80
2021/12/06 01:06:56;;;;;;;8.98;5.00;;;2.80;99.90;;;;;;5051973;28;20496;-79
2021/12/06 01:09:22;;;;;;;9.63;6.22;;;2.60;99.90;;;;;;5051968;28;20052;-79
2021/12/06 01:11:48;;;;;;;9.18;5.55;;;2.60;99.90;;;;;;5052198;28;20075;-79
2021/12/06 01:14:14;;;;;;;11.75;5.45;;;2.60;99.90;;;;;;5053217;28;20025;-79
2021/12/06 01:16:40;;;;;;;11.80;6.22;;;2.60;99.90;;;;;;5053147;28;20017;-79
2021/12/06 01:19:06;;;;;;;12.20;6.15;;;2.60;99.90;;;;;;5051901;28;20048;-79
2021/12/06 01:24:20;;;;;;;10.25;5.28;;;2.50;99.90;;;;;;5053651;28;20071;-79
2021/12/06 01:27:28;;;;;;;12.38;5.63;;;2.70;99.90;;;;;;5051722;28;20025;-79
2021/12/06 01:40:08;;;;;;;9.13;5.10;;;2.50;99.90;;;;;;5093396;28;20398;-79
2021/12/06 01:42:34;;;;;;;10.88;5.47;;;2.50;99.90;;;;;;5093311;28;20475;-79
2021/12/06 01:45:00;;;;;;;8.75;5.25;;;2.50;99.90;;;;;;5092953;28;20039;-79
2021/12/06 01:47:33;;;;;;;7.85;4.93;;;2.50;99.90;;;;;;5093074;28;20024;-79
2021/12/06 01:50:18;;;;;;;8.60;4.90;;;2.40;99.90;;;;;;5074759;28;20031;-79
2021/12/06 01:52:47;;;;;;;6.18;4.40;;;2.30;99.90;;;;;;5074872;28;20048;-79
2021/12/06 01:55:17;;;;;;;9.77;4.97;;;2.40;99.90;;;;;;5074848;28;20047;-79
2021/12/06 01:57:44;;;;;;;11.05;5.05;;;2.50;99.90;;;;;;5092945;28;20099;-79
2021/12/06 02:00:19;;;;;;;9.50;5.15;;;2.50;99.90;;;;;;5092858;28;20426;-79
2021/12/06 02:02:45;;;;;;;8.57;5.10;;;2.60;99.90;;;;;;5093146;28;20458;-79
2021/12/06 02:05:11;;;;;;;7.20;4.75;;;2.50;99.90;;;;;;5074932;28;20365;-79
2021/12/06 02:07:37;;;;;;;7.55;4.35;;;2.40;99.90;;;;;;5092741;28;20027;-79
2021/12/06 02:10:05;;;;;;;9.55;4.88;;;2.50;99.90;;;;;;5074613;28;20024;-80
2021/12/06 02:12:32;;;;;;;10.20;4.22;;;2.50;99.90;;;;;;5075182;28;20024;-79
2021/12/06 02:15:06;;;;;;;7.63;4.60;;;2.50;99.90;;;;;;5078591;28;20020;-79
2021/12/06 02:17:38;;;;;;;6.05;4.22;;;2.50;99.90;;;;;;5078583;28;20502;-79
2021/12/06 02:20:14;;;;;;;5.25;4.03;;;2.60;99.90;;;;;;5096760;28;20027;-79
2021/12/06 02:22:40;;;;;;;8.50;4.05;;;2.70;99.90;;;;;;5078523;28;20067;-79
2021/12/06 02:25:13;;;;;;;9.80;4.55;;;2.60;99.90;;;;;;5096650;28;20016;-79
2021/12/06 02:27:38;;;;;;;8.10;4.55;;;2.60;99.90;;;;;;5096570;28;20039;-79
2021/12/06 02:30:06;;;;;;;7.45;4.43;;;2.70;99.90;;;;;;5078328;28;20388;-79
2021/12/06 02:32:33;;;;;;;8.40;4.93;;;2.70;99.90;;;;;;5096822;28;20068;-79
2021/12/06 02:34:59;;;;;;;7.68;4.75;;;2.60;99.90;;;;;;5096701;28;20107;-79
2021/12/06 02:37:30;;;;;;;7.78;4.57;;;2.60;99.90;;;;;;5077943;28;20589;-79
2021/12/06 02:39:57;;;;;;;10.45;5.47;;;2.50;99.90;;;;;;5078203;28;20548;-79
2021/12/06 02:42:24;;;;;;;10.65;4.63;;;2.40;99.90;;;;;;5078075;28;20020;-79
2021/12/06 02:44:51;;;;;;;7.47;4.63;;;2.40;99.90;;;;;;5078054;28;20025;-79
2021/12/06 02:47:19;;;;;;;9.40;5.28;;;2.40;99.90;;;;;;5096015;28;20025;-79
2021/12/06 02:49:46;;;;;;;8.38;5.05;;;2.30;99.90;;;;;;5078050;28;20048;-79
2021/12/06 02:52:13;;;;;;;8.43;4.72;;;2.20;99.90;;;;;;5096108;28;20370;-79
2021/12/06 02:54:40;;;;;;;8.60;4.55;;;2.20;99.90;;;;;;5096320;28;20453;-79
2021/12/06 02:59:42;;;;;;;8.68;4.70;;;2.40;99.90;;;;;;5096007;28;20035;-79
2021/12/06 03:02:10;;;;;;;8.15;4.90;;;2.40;99.90;;;;;;5077727;28;20394;-79
2021/12/06 03:04:38;;;;;;;7.97;4.93;;;2.40;99.90;;;;;;5095857;28;20036;-79
2021/12/06 03:07:06;;;;;;;5.80;4.18;;;2.40;99.90;;;;;;5077749;28;20510;-79
2021/12/06 03:09:37;;;;;;;10.57;4.50;;;2.50;99.90;;;;;;5077565;28;20491;-79
2021/12/06 03:12:06;;;;;;;7.70;4.53;;;2.40;99.90;;;;;;5077569;28;20157;-80
2021/12/06 03:14:44;;;;;;;7.80;4.78;;;2.50;99.90;;;;;;5077694;28;20094;-79
2021/12/06 03:17:13;;;;;;;6.43;3.95;;;2.40;99.90;;;;;;5096107;28;20016;-79
2021/12/06 03:19:40;;;;;;;6.15;4.30;;;2.50;99.90;;;;;;5096046;28;20039;-79
2021/12/06 03:22:08;;;;;;;8.02;4.35;;;2.60;99.90;;;;;;5095508;28;20103;-79
2021/12/06 03:24:34;;;;;;;7.30;4.47;;;2.70;99.90;;;;;;5094526;28;20024;-79
2021/12/06 03:27:00;;;;;;;5.38;3.90;;;2.80;99.90;;;;;;5095799;28;20063;-79
2021/12/06 03:29:27;;;;;;;6.28;4.10;;;2.90;99.90;;;;;;5077200;28;20024;-79
2021/12/06 03:31:53;;;;;;;5.20;3.58;;;3.00;99.90;;;;;;5077195;28;20024;-79
2021/12/06 03:34:19;;;;;;;6.82;4.05;;;2.80;99.90;;;;;;5095336;28;20023;-79
2021/12/06 03:36:46;;;;;;;6.28;3.90;;;2.70;99.90;;;;;;5077154;28;20027;-79
2021/12/06 03:39:23;;;;;;;7.25;4.03;;;2.70;99.90;;;;;;5076905;28;20055;-79
2021/12/06 03:41:50;;;;;;;5.55;3.78;;;2.60;99.90;;;;;;5077095;28;20036;-79
2021/12/06 03:44:16;;;;;;;8.30;4.03;;;2.70;99.90;;;;;;5095127;28;20028;-79
2021/12/06 03:46:42;;;;;;;6.75;3.85;;;2.70;99.90;;;;;;5095067;28;20028;-80
2021/12/06 03:49:13;;;;;;;7.65;3.85;;;2.80;99.90;;;;;;5094970;28;20498;-79
2021/12/06 03:51:40;;;;;;;7.57;3.80;;;2.80;99.90;;;;;;5095018;28;20027;-79
2021/12/06 03:54:08;;;;;;;5.95;3.67;;;2.70;99.90;;;;;;5094968;28;20499;-79
2021/12/06 03:56:38;;;;;;;7.32;4.05;;;2.50;99.90;;;;;;5076774;28;20529;-79
2021/12/06 03:59:04;;;;;;;8.13;4.20;;;2.40;99.90;;;;;;5076682;28;20028;-79
2021/12/06 04:01:31;;;;;;;6.30;3.97;;;2.50;99.90;;;;;;5094784;28;20024;-79
2021/12/06 04:03:58;;;;;;;7.22;4.32;;;2.40;99.90;;;;;;5076641;28;20032;-79
2021/12/06 04:06:24;;;;;;;6.57;3.65;;;2.40;99.90;;;;;;5076498;28;20107;-79
2021/12/06 04:08:50;;;;;;;6.43;3.70;;;2.40;99.90;;;;;;5076732;28;20052;-79
2021/12/06 04:11:16;;;;;;;6.35;3.80;;;2.30;99.90;;;;;;5094581;28;20082;-79
2021/12/06 04:13:43;;;;;;;12.20;6.25;;;2.30;99.90;;;;;;5076361;28;20403;-79
2021/12/06 04:16:09;;;;;;;36.38;14.43;;;2.40;99.90;;;;;;5076339;28;20115;-79
2021/12/06 04:18:34;;;;;;;14.70;7.30;;;2.30;99.90;;;;;;5094656;28;20051;-79
2021/12/06 04:21:00;;;;;;;7.82;4.38;;;2.30;99.90;;;;;;5094485;28;20020;-79
2021/12/06 04:23:27;;;;;;;8.50;4.80;;;2.30;99.90;;;;;;5094377;28;20032;-79
2021/12/06 04:25:53;;;;;;;8.82;4.25;;;2.30;99.90;;;;;;5076046;28;20024;-79
2021/12/06 04:28:20;;;;;;;7.32;4.28;;;2.30;99.90;;;;;;5075929;28;20123;-79
2021/12/06 04:30:48;;;;;;;6.50;4.03;;;2.40;99.90;;;;;;5075994;28;20561;-80
2021/12/06 04:33:14;;;;;;;7.25;3.95;;;2.40;99.90;;;;;;5076010;28;20502;-79
2021/12/06 04:35:41;;;;;;;6.50;4.20;;;2.40;99.90;;;;;;5075887;28;20418;-79
2021/12/06 04:38:08;;;;;;;8.23;4.20;;;2.40;99.90;;;;;;5075652;28;20147;-79
2021/12/06 04:40:35;;;;;;;7.20;4.10;;;2.40;99.90;;;;;;5093968;28;20028;-79
2021/12/06 04:43:01;;;;;;;7.20;4.10;;;2.60;99.90;;;;;;5093966;28;20529;-79
2021/12/06 04:45:27;;;;;;;7.10;4.55;;;2.50;99.90;;;;;;5093943;28;20434;-79
2021/12/06 04:47:53;;;;;;;7.57;4.57;;;2.70;99.90;;;;;;5093717;28;20031;-79
2021/12/06 04:50:23;;;;;;;9.15;4.57;;;2.50;99.90;;;;;;5093859;28;20028;-79
2021/12/06 04:52:50;;;;;;;7.95;3.95;;;2.60;99.90;;;;;;5075612;28;20032;-79
2021/12/06 04:55:33;;;;;;;7.80;4.35;;;2.50;99.90;;;;;;5075491;28;20024;-79
2021/12/06 04:57:59;;;;;;;7.07;4.07;;;2.40;99.90;;;;;;5075556;28;20036;-79
2021/12/06 05:00:35;;;;;;;7.10;4.18;;;2.40;99.90;;;;;;5093600;28;20028;-79
2021/12/06 05:03:02;;;;;;;5.18;4.18;;;2.40;99.90;;;;;;5076288;28;20585;-79
2021/12/06 05:05:32;;;;;;;6.88;4.22;;;2.40;99.90;;;;;;5075464;28;20028;-79
2021/12/06 05:08:06;;;;;;;6.72;4.25;;;2.40;99.90;;;;;;5075325;28;20448;-79
2021/12/06 05:10:32;;;;;;;9.27;3.85;;;2.50;99.90;;;;;;5075347;28;20032;-79
2021/12/06 05:12:59;;;;;;;5.88;3.75;;;2.60;99.90;;;;;;5075154;28;20089;-79
2021/12/06 05:15:24;;;;;;;7.50;4.15;;;2.80;99.90;;;;;;5075309;28;20486;-79
2021/12/06 05:17:50;;;;;;;6.32;4.07;;;2.90;99.90;;;;;;5075158;28;20028;-79
2021/12/06 05:20:17;;;;;;;5.95;3.88;;;2.90;99.90;;;;;;5093352;28;20028;-79
2021/12/06 05:22:45;;;;;;;6.82;3.63;;;2.70;99.90;;;;;;5075106;28;20392;-79
2021/12/06 05:25:11;;;;;;;8.02;4.07;;;2.70;99.90;;;;;;5075235;28;20024;-79
2021/12/06 05:27:37;;;;;;;7.32;3.70;;;2.70;99.90;;;;;;5075103;28;20028;-79
2021/12/06 05:30:06;;;;;;;8.52;4.28;;;2.60;99.90;;;;;;5075339;28;20065;-79
2021/12/06 05:32:34;;;;;;;10.55;4.47;;;2.60;99.90;;;;;;5093132;28;20099;-79
2021/12/06 05:35:06;;;;;;;6.38;3.90;;;2.50;99.90;;;;;;5093170;28;20020;-79
2021/12/06 05:37:34;;;;;;;6.80;3.80;;;2.50;99.90;;;;;;5074782;28;20020;-79
2021/12/06 05:40:01;;;;;;;6.05;3.83;;;2.50;99.90;;;;;;5074974;28;20028;-79
2021/12/06 05:42:27;;;;;;;5.68;3.80;;;2.70;99.90;;;;;;5074899;28;20387;-79
2021/12/06 05:44:52;;;;;;;6.88;4.30;;;2.70;99.90;;;;;;5074920;28;20035;-79
2021/12/06 05:47:18;;;;;;;7.40;5.57;;;2.70;99.90;;;;;;5074271;28;20032;-79
2021/12/06 05:49:44;;;;;;;7.78;5.00;;;2.70;99.90;;;;;;5074684;28;20499;-80
2021/12/06 05:52:10;;;;;;;9.73;4.35;;;2.80;99.90;;;;;;5092965;28;20031;-79
2021/12/06 05:54:36;;;;;;;6.55;3.88;;;2.90;99.90;;;;;;5074791;28;20020;-79
2021/12/06 05:57:03;;;;;;;8.20;3.35;;;2.80;99.90;;;;;;5092896;28;20024;-79
2021/12/06 05:59:29;;;;;;;6.40;4.15;;;2.90;99.90;;;;;;5074718;28;20020;-79
2021/12/06 06:01:55;;;;;;;7.40;3.95;;;2.80;99.90;;;;;;5093153;28;20035;-79
2021/12/06 06:04:22;;;;;;;7.13;4.07;;;2.70;99.90;;;;;;5074880;28;20043;-79
2021/12/06 06:06:49;;;;;;;6.95;4.47;;;2.70;99.90;;;;;;5093174;28;20488;-79
2021/12/06 06:09:15;;;;;;;5.90;3.58;;;2.70;99.90;;;;;;5092879;28;20077;-79
2021/12/06 06:11:41;;;;;;;5.60;4.22;;;2.70;99.90;;;;;;5074940;28;20452;-79
2021/12/06 06:14:08;;;;;;;6.80;4.57;;;2.90;99.90;;;;;;5093220;28;20053;-79
2021/12/06 06:16:47;;;;;;;8.57;4.70;;;3.00;99.90;;;;;;5092923;28;20055;-79
2021/12/06 06:19:17;;;;;;;7.05;4.75;;;3.00;99.90;;;;;;5092922;28;20444;-79
2021/12/06 06:21:43;;;;;;;5.30;3.50;;;2.70;99.90;;;;;;5074671;28;20027;-79
2021/12/06 06:24:09;;;;;;;8.63;4.47;;;2.60;99.90;;;;;;5074655;28;20032;-79
2021/12/06 06:26:34;;;;;;;7.50;4.30;;;2.60;99.90;;;;;;5074669;28;20021;-79
2021/12/06 06:29:00;;;;;;;7.07;3.90;;;2.50;99.90;;;;;;5092716;28;20024;-79
2021/12/06 06:31:26;;;;;;;7.45;4.15;;;2.60;99.90;;;;;;5092763;28;20051;-79
2021/12/06 06:33:52;;;;;;;8.48;4.45;;;2.70;99.90;;;;;;5074627;28;20483;-78
2021/12/06 06:36:18;;;;;;;8.05;4.55;;;2.70;99.90;;;;;;5074615;28;20563;-79
2021/12/06 06:38:43;;;;;;;8.20;4.80;;;2.70;99.90;;;;;;5071063;28;20048;-79
2021/12/06 06:41:09;;;;;;;7.82;4.97;;;2.70;99.90;;;;;;5088103;28;20400;-79
2021/12/06 06:43:35;;;;;;;7.85;5.28;;;2.70;99.90;;;;;;5072487;28;20020;-79
2021/12/06 06:46:03;;;;;;;11.60;4.75;;;2.80;99.90;;;;;;5072654;28;20033;-79
2021/12/06 06:48:29;;;;;;;8.35;5.57;;;2.70;99.90;;;;;;5087843;28;20484;-79
2021/12/06 06:50:55;;;;;;;8.82;5.00;;;2.70;99.90;;;;;;5072410;28;20425;-79
2021/12/06 06:53:21;;;;;;;11.77;7.13;;;2.60;99.90;;;;;;5072376;28;20468;-79
2021/12/06 06:55:47;;;;;;;9.68;6.63;;;2.80;99.90;;;;;;5087851;28;20016;-79
2021/12/06 06:58:13;;;;;;;10.57;5.97;;;2.80;99.90;;;;;;5088095;28;20032;-79
2021/12/06 07:00:40;;;;;;;12.55;6.60;;;2.80;99.90;;;;;;5074771;28;20033;-79
2021/12/06 07:03:08;;;;;;;34.78;7.45;;;2.70;99.90;;;;;;5091428;28;20499;-79
2021/12/06 07:05:34;;;;;;;11.35;5.93;;;2.70;99.90;;;;;;5091446;28;20119;-79
2021/12/06 07:08:00;;;;;;;9.85;7.13;;;2.80;99.90;;;;;;5091269;28;20020;-79
2021/12/06 07:10:26;;;;;;;12.65;7.38;;;2.80;99.90;;;;;;5091302;28;20031;-79
2021/12/06 07:12:54;;;;;;;11.73;6.93;;;2.90;99.90;;;;;;5091257;28;20017;-80
2021/12/06 07:15:26;;;;;;;10.80;7.53;;;2.90;99.90;;;;;;5075594;28;20017;-79
2021/12/06 07:17:53;;;;;;;17.17;9.52;;;2.90;99.90;;;;;;5091375;28;20056;-79
2021/12/06 07:20:20;;;;;;;19.00;11.60;;;2.90;99.90;;;;;;5075838;28;20107;-78
2021/12/06 07:22:48;;;;;;;13.45;9.05;;;3.00;99.90;;;;;;5074450;28;20025;-79
2021/12/06 07:25:16;;;;;;;21.88;12.05;;;3.00;99.90;;;;;;5091084;28;20522;-79
2021/12/06 07:27:43;;;;;;;14.45;10.45;;;3.20;99.90;;;;;;5075486;28;20384;-78
2021/12/06 07:30:11;;;;;;;18.30;11.73;;;3.20;99.90;;;;;;5074212;28;20055;-79
2021/12/06 07:32:38;;;;;;;17.70;11.30;;;3.10;99.90;;;;;;5075458;28;20092;-79
2021/12/06 07:35:05;;;;;;;26.08;17.20;;;3.20;99.90;;;;;;5074165;28;20120;-79
2021/12/06 07:37:30;;;;;;;21.88;14.88;;;3.20;99.90;;;;;;5075436;28;20020;-79
2021/12/06 07:39:56;;;;;;;24.50;14.77;;;3.20;99.90;;;;;;5077342;28;20119;-79
2021/12/06 07:42:22;;;;;;;21.80;14.25;;;3.20;99.90;;;;;;5077294;28;20051;-79
2021/12/06 07:44:48;;;;;;;26.02;15.82;;;3.30;99.90;;;;;;5077295;28;20053;-79
2021/12/06 07:47:15;;;;;;;15.68;10.88;;;3.30;99.90;;;;;;5077163;28;20020;-79
2021/12/06 07:49:43;;;;;;;26.27;16.20;;;3.40;99.90;;;;;;5077172;28;20425;-78
2021/12/06 07:52:12;;;;;;;23.90;14.40;;;3.60;99.90;;;;;;5077114;28;20486;-78
2021/12/06 07:54:39;;;;;;;28.73;16.83;;;3.70;99.90;;;;;;5095218;28;20023;-79
2021/12/06 07:57:06;;;;;;;20.80;12.57;;;3.60;99.90;;;;;;5077064;28;20536;-79
2021/12/06 07:59:33;;;;;;;30.85;18.00;;;3.50;99.90;;;;;;5077023;28;20484;-78
2021/12/06 08:01:59;;;;;;;23.67;15.18;;;3.50;99.90;;;;;;5076953;28;20032;-79
2021/12/06 08:04:25;;;;;;;33.17;20.38;;;3.40;99.90;;;;;;5095135;28;20024;-79
2021/12/06 08:06:51;;;;;;;25.38;15.88;;;3.40;99.90;;;;;;5094991;28;20457;-79
2021/12/06 08:09:17;;;;;;;28.23;16.63;;;3.30;99.90;;;;;;5076702;28;20494;-79
2021/12/06 08:11:43;;;;;;;34.15;19.83;;;3.20;99.90;;;;;;5076402;28;20440;-78
2021/12/06 08:14:10;;;;;;;29.73;16.33;;;3.30;99.90;;;;;;5076743;28;20525;-79
2021/12/06 08:16:40;;;;;;;23.92;14.63;;;3.30;99.90;;;;;;5076684;28;20020;-79
2021/12/06 08:19:07;;;;;;;24.98;14.15;;;3.50;99.90;;;;;;5076679;28;20032;-78
2021/12/06 08:21:33;;;;;;;24.55;14.80;;;3.70;99.90;;;;;;5076682;28;20039;-79
2021/12/06 08:24:01;;;;;;;21.52;13.88;;;3.70;99.90;;;;;;5076560;28;20116;-78
2021/12/06 08:26:30;;;;;;;25.38;15.25;;;3.80;99.90;;;;;;5094633;28;20115;-79
2021/12/06 08:28:58;;;;;;;24.50;14.35;;;3.80;99.90;;;;;;5094488;28;20079;-78
2021/12/06 08:31:27;;;;;;;27.23;15.95;;;4.00;99.90;;;;;;5076331;28;20031;-79
2021/12/06 08:33:53;;;;;;;22.45;14.32;;;3.80;99.90;;;;;;5076543;28;20020;-78
2021/12/06 08:36:20;;;;;;;23.35;14.75;;;3.80;99.90;;;;;;5076289;28;20143;-79
2021/12/06 08:38:47;;;;;;;22.70;14.32;;;3.90;99.90;;;;;;5094364;28;20036;-78
2021/12/06 08:41:18;;;;;;;22.27;15.30;;;3.90;99.90;;;;;;5076158;28;20024;-78
2021/12/06 08:43:46;;;;;;;22.25;14.02;;;3.80;99.90;;;;;;5076119;28;20073;-79
2021/12/06 08:46:16;;;;;;;24.35;15.25;;;3.90;99.90;;;;;;5076065;28;20030;-79
2021/12/06 08:48:42;;;;;;;26.88;15.50;;;3.80;99.90;;;;;;5076196;28;20051;-78
2021/12/06 08:51:39;;;;;;;26.80;15.70;;;3.90;99.90;;;;;;5075852;28;20081;-78
2021/12/06 08:54:06;;;;;;;32.22;19.30;;;3.90;99.90;;;;;;5072745;28;20038;-79
2021/12/06 08:56:32;;;;;;;23.25;15.05;;;3.70;99.90;;;;;;5075850;28;20020;-79
2021/12/06 08:58:59;;;;;;;30.13;19.50;;;3.60;99.90;;;;;;5075834;28;20031;-79
2021/12/06 09:01:26;;;;;;;25.55;15.50;;;3.50;99.90;;;;;;5075782;28;20078;-79
2021/12/06 09:03:52;;;;;;;31.67;17.95;;;3.60;99.90;;;;;;5094053;28;20072;-79
2021/12/06 09:06:18;;;;;;;36.53;20.88;;;3.60;99.90;;;;;;5075602;28;20594;-79
2021/12/06 09:08:44;;;;;;;24.35;15.93;;;3.60;99.90;;;;;;5093973;28;20076;-79
2021/12/06 09:11:11;;;;;;;27.52;18.20;;;3.50;99.90;;;;;;5075598;28;20016;-78
2021/12/06 09:13:38;;;;;;;28.63;17.67;;;3.70;99.90;;;;;;5075561;28;20376;-79
2021/12/06 09:16:06;;;;;;;23.90;14.82;;;3.60;99.90;;;;;;5075591;28;20070;-79
2021/12/06 09:18:34;;;;;;;26.17;15.25;;;3.70;99.90;;;;;;5075506;28;20043;-79
2021/12/06 09:21:03;;;;;;;28.10;15.77;;;3.80;99.90;;;;;;5075523;28;20020;-79
2021/12/06 09:23:29;;;;;;;31.27;19.20;;;3.90;99.90;;;;;;5074688;28;20067;-80
2021/12/06 09:25:56;;;;;;;29.52;17.75;;;3.80;99.90;;;;;;5075348;28;20031;-80
2021/12/06 09:28:22;;;;;;;30.05;19.17;;;3.90;99.90;;;;;;5075315;28;20062;-80
2021/12/06 09:30:48;;;;;;;27.83;16.58;;;3.90;99.90;;;;;;5093426;28;20483;-80
2021/12/06 09:33:16;;;;;;;27.15;16.77;;;4.00;99.90;;;;;;5075190;28;20387;-80
2021/12/06 09:35:45;;;;;;;23.45;15.32;;;4.00;99.90;;;;;;5075190;28;20027;-81
2021/12/06 09:38:15;;;;;;;23.52;15.50;;;4.10;99.90;;;;;;5074992;28;20044;-80
2021/12/06 09:40:44;;;;;;;27.40;15.07;;;4.10;99.90;;;;;;5075181;28;20028;-81
2021/12/06 09:43:11;;;;;;;22.67;14.20;;;4.10;99.90;;;;;;5093392;28;20035;-80
2021/12/06 09:45:39;;;;;;;24.42;13.43;;;4.00;99.90;;;;;;5093248;28;20020;-80
2021/12/06 09:48:06;;;;;;;21.30;14.18;;;4.10;99.90;;;;;;5074922;28;20024;-81
2021/12/06 09:50:56;;;;;;;20.08;13.20;;;4.30;99.90;;;;;;5075075;28;20020;-80
2021/12/06 09:53:26;;;;;;;20.65;14.20;;;4.40;99.90;;;;;;5075104;28;20020;-80
2021/12/06 09:55:54;;;;;;;18.27;11.00;;;4.70;99.90;;;;;;5075016;28;20020;-80
2021/12/06 09:58:21;;;;;;;13.07;8.85;;;4.80;99.90;;;;;;5075045;28;20437;-80
2021/12/06 10:00:52;;;;;;;15.90;10.70;;;5.00;99.90;;;;;;5075026;28;20040;-80
2021/12/06 10:03:23;;;;;;;15.18;10.15;;;5.00;99.90;;;;;;5075218;28;20032;-80
2021/12/06 10:05:50;;;;;;;14.30;9.88;;;5.00;99.90;;;;;;5075044;28;20395;-80
2021/12/06 10:08:16;;;;;;;13.70;8.45;;;4.90;99.90;;;;;;5074900;28;20028;-80
2021/12/06 10:10:42;;;;;;;12.88;8.45;;;4.90;99.90;;;;;;5074880;28;20024;-81
2021/12/06 10:13:08;;;;;;;11.70;7.72;;;5.00;99.90;;;;;;5074991;28;20035;-80
2021/12/06 10:15:36;;;;;;;12.43;7.75;;;5.00;99.90;;;;;;5093066;28;20081;-81
2021/12/06 10:18:04;;;;;;;11.77;7.20;;;4.90;99.90;;;;;;5074858;28;20369;-81
2021/12/06 10:20:31;;;;;;;8.10;5.72;;;4.90;99.90;;;;;;5093127;28;20031;-81
2021/12/06 10:22:57;;;;;;;10.20;6.70;;;5.00;99.90;;;;;;5074774;28;20021;-81
2021/12/06 10:25:39;;;;;;;7.53;4.43;;;4.90;99.90;;;;;;5074703;28;20024;-81
2021/12/06 10:28:05;;;;;;;6.85;4.32;;;4.90;99.90;;;;;;5075118;28;20503;-81
2021/12/06 10:30:38;;;;;;;7.10;4.55;;;4.80;99.90;;;;;;5074699;28;20067;-81
2021/12/06 10:33:14;;;;;;;7.20;4.90;;;4.80;99.90;;;;;;5074718;28;20024;-80
2021/12/06 10:35:47;;;;;;;8.30;5.60;;;4.80;99.90;;;;;;5078599;28;20052;-81
2021/12/06 10:38:23;;;;;;;5.03;3.53;;;4.70;99.90;;;;;;5075018;28;20056;-81
2021/12/06 10:40:49;;;;;;;8.52;5.28;;;4.60;99.90;;;;;;5092045;28;20547;-80
2021/12/06 10:43:16;;;;;;;9.90;5.43;;;4.50;99.90;;;;;;5076346;28;20024;-80
2021/12/06 10:45:49;;;;;;;10.90;5.90;;;4.40;99.90;;;;;;5091982;28;20021;-81
2021/12/06 10:48:26;;;;;;;10.20;7.20;;;4.30;99.90;;;;;;5076237;28;20025;-81
2021/12/06 10:50:52;;;;;;;12.57;6.47;;;4.30;99.90;;;;;;5076234;28;20013;-81
2021/12/06 10:53:25;;;;;;;11.38;7.10;;;4.30;99.90;;;;;;5091783;28;20090;-81
2021/12/06 10:55:53;;;;;;;10.50;7.45;;;4.30;99.90;;;;;;5091831;28;20472;-80
2021/12/06 10:58:23;;;;;;;11.32;8.13;;;4.40;99.90;;;;;;5076026;28;20024;-80
2021/12/06 11:01:01;;;;;;;14.23;7.90;;;4.50;99.90;;;;;;5091624;28;20028;-81
2021/12/06 11:03:40;;;;;;;14.25;7.28;;;4.60;99.90;;;;;;5091702;28;20032;-80
2021/12/06 11:06:44;;;;;;;9.88;7.07;;;4.70;99.90;;;;;;5091658;28;20369;-81
2021/12/06 11:09:13;;;;;;;12.73;7.07;;;5.30;99.90;;;;;;5074624;28;20024;-80
2021/12/06 11:11:46;;;;;;;11.13;6.30;;;5.40;99.90;;;;;;5091438;28;20119;-82
2021/12/06 11:14:21;;;;;;;9.40;6.00;;;5.30;99.90;;;;;;5091472;28;20025;-81
2021/12/06 11:16:52;;;;;;;9.15;5.68;;;5.10;99.90;;;;;;5091369;28;20024;-78
2021/12/06 11:19:20;;;;;;;10.48;6.13;;;4.90;99.90;;;;;;5091315;28;20078;-79
2021/12/06 11:21:49;;;;;;;7.47;5.50;;;4.70;99.90;;;;;;5091202;28;20494;-78
2021/12/06 11:24:17;;;;;;;10.52;5.97;;;4.50;99.90;;;;;;5091190;28;20025;-78
2021/12/06 11:26:48;;;;;;;10.48;5.88;;;4.40;99.90;;;;;;5091189;28;20055;-78
2021/12/06 11:29:22;;;;;;;8.52;5.85;;;4.50;99.90;;;;;;5075511;28;20443;-78
2021/12/06 11:31:59;;;;;;;9.52;5.68;;;4.50;99.90;;;;;;5091128;28;20020;-79
2021/12/06 11:34:28;;;;;;;6.15;4.72;;;5.20;99.90;;;;;;5075499;28;20021;-78
2021/12/06 11:36:55;;;;;;;7.00;5.32;;;6.20;99.90;;;;;;5090945;28;20020;-79
2021/12/06 11:39:22;;;;;;;5.97;4.53;;;6.50;99.90;;;;;;5091977;28;20507;-78
2021/12/06 11:41:52;;;;;;;8.18;4.22;;;7.20;99.90;;;;;;5077399;28;20531;-78
2021/12/06 11:44:23;;;;;;;4.88;3.90;;;7.70;99.90;;;;;;5077381;28;20024;-78
2021/12/06 11:47:04;;;;;;;7.60;3.58;;;7.00;99.90;;;;;;5094713;28;20028;-78
2021/12/06 11:49:52;;;;;;;6.90;3.58;;;6.10;99.90;;;;;;5077159;28;20503;-79
2021/12/06 11:52:26;;;;;;;7.25;3.55;;;5.40;99.90;;;;;;5076477;28;20028;-78
2021/12/06 11:54:54;;;;;;;5.78;3.28;;;5.20;99.90;;;;;;5077214;28;20023;-78
2021/12/06 11:57:26;;;;;;;5.47;3.60;;;6.00;99.90;;;;;;5077011;28;20076;-78
2021/12/06 12:00:17;;;;;;;7.00;3.65;;;7.10;99.90;;;;;;5077055;28;20137;-78
2021/12/06 12:02:54;;;;;;;6.28;3.55;;;8.30;99.90;;;;;;5095071;28;20032;-78
2021/12/06 12:05:24;;;;;;;7.40;3.83;;;9.10;99.90;;;;;;5076944;28;20024;-80
2021/12/06 12:08:00;;;;;;;9.07;3.67;;;10.10;99.90;;;;;;5076854;28;20115;-79
2021/12/06 12:10:45;;;;;;;6.07;3.28;;;10.80;99.90;;;;;;5076831;28;20111;-79
2021/12/06 12:13:22;;;;;;;2.85;2.53;;;10.40;99.90;;;;;;5076807;28;20016;-79
2021/12/06 12:15:48;;;;;;;2.97;2.47;;;10.10;99.90;;;;;;5094887;28;20024;-79
2021/12/06 12:18:14;;;;;;;3.88;3.13;;;9.00;99.90;;;;;;5076677;28;20024;-79
2021/12/06 12:20:40;;;;;;;4.13;3.10;;;8.40;99.90;;;;;;5076659;28;20028;-79
2021/12/06 12:23:09;;;;;;;5.10;3.03;;;7.80;99.90;;;;;;5094987;28;20081;-78
2021/12/06 12:25:48;;;;;;;3.78;2.38;;;8.90;99.90;;;;;;5076515;28;20020;-79
2021/12/06 12:29:00;;;;;;;4.00;2.70;;;10.50;99.90;;;;;;5076382;28;20028;-79
2021/12/06 12:31:09;;;;;;;4.93;2.60;;;11.80;99.90;;;;;;5086105;28;20043;-79
2021/12/06 12:33:36;;;;;;;5.53;2.30;;;12.80;99.90;;;;;;5076357;28;20107;-79
2021/12/06 12:36:09;;;;;;;3.90;2.28;;;12.00;99.90;;;;;;5094398;28;20556;-79
2021/12/06 12:38:37;;;;;;;3.78;2.55;;;11.70;99.90;;;;;;5094340;28;20052;-79
2021/12/06 12:41:09;;;;;;;7.15;2.33;;;10.70;99.90;;;;;;5094699;28;20361;-79
2021/12/06 12:43:45;;;;;;;3.95;2.03;;;10.80;99.90;;;;;;5076143;28;20077;-79
2021/12/06 12:46:19;;;;;;;3.95;2.13;;;12.40;99.90;;;;;;5094584;28;20380;-79
2021/12/06 12:48:57;;;;;;;2.97;1.90;;;13.70;99.90;;;;;;5094250;28;20020;-82
2021/12/06 12:51:30;;;;;;;3.55;2.05;;;14.60;99.90;;;;;;5094199;28;20024;-82
2021/12/06 12:54:07;;;;;;;2.70;1.50;;;15.40;99.10;;;;;;5076010;28;20116;-82
2021/12/06 12:56:43;;;;;;;3.72;1.33;;;15.80;97.60;;;;;;5094132;28;20020;-82
2021/12/06 12:59:32;;;;;;;1.90;1.27;;;16.20;95.50;;;;;;5093592;28;20031;-82
2021/12/06 13:02:29;;;;;;;2.20;1.52;;;15.60;94.00;;;;;;5094355;28;20027;-82
2021/12/06 13:04:57;;;;;;;2.83;1.40;;;16.00;94.90;;;;;;5094287;28;20032;-82
2021/12/06 13:07:37;;;;;;;2.10;1.10;;;16.50;92.70;;;;;;5075801;28;20391;-82
2021/12/06 13:10:21;;;;;;;3.00;1.90;;;15.80;92.60;;;;;;5075785;28;20032;-82
2021/12/06 13:13:06;;;;;;;2.33;1.40;;;15.90;93.30;;;;;;5076003;28;20016;-83
2021/12/06 13:19:10;;;;;;;2.47;1.70;;;15.70;93.20;;;;;;5093836;28;20020;-83